createdAt,value
2017-10-14T00:04:05.956Z,11.40
2017-10-14T00:06:41.433Z,10.80
2017-10-14T00:09:16.667Z,9.60
2017-10-14T00:11:51.970Z,13.30
2017-10-14T00:14:29.039Z,17.97
2017-10-14T00:17:04.187Z,14.97
2017-10-14T00:19:38.889Z,6.97
2017-10-14T00:22:14.259Z,9.63
2017-10-14T00:24:50.452Z,7.80
2017-10-14T00:27:27.593Z,12.40
2017-10-14T00:30:03.212Z,24.87
2017-10-14T00:32:38.477Z,10.67
2017-10-14T00:35:14.298Z,9.03
2017-10-14T00:37:49.025Z,10.93
2017-10-14T00:40:25.086Z,10.07
2017-10-14T00:42:59.970Z,13.50
2017-10-14T00:45:34.857Z,9.70
2017-10-14T00:48:09.522Z,5.30
2017-10-14T00:50:45.231Z,9.83
2017-10-14T00:53:20.203Z,15.50
2017-10-14T00:55:57.666Z,6.10
2017-10-14T00:58:32.750Z,9.87
2017-10-14T01:01:07.675Z,6.37
2017-10-14T01:03:42.634Z,10.70
2017-10-14T01:06:17.599Z,10.03
2017-10-14T01:08:53.055Z,10.87
2017-10-14T01:11:27.649Z,7.97
2017-10-14T01:14:02.995Z,12.43
2017-10-14T01:16:37.728Z,8.70
2017-10-14T01:19:12.359Z,11.17
2017-10-14T01:21:47.389Z,11.53
2017-10-14T01:24:22.059Z,7.90
2017-10-14T01:26:56.924Z,9.13
2017-10-14T01:29:31.417Z,9.33
2017-10-14T01:32:06.607Z,15.03
2017-10-14T01:34:43.192Z,5.87
2017-10-14T01:37:17.978Z,8.47
2017-10-14T01:39:52.619Z,9.10
2017-10-14T01:42:27.603Z,5.60
2017-10-14T01:45:02.183Z,4.40
2017-10-14T01:47:39.782Z,6.80
2017-10-14T01:50:16.760Z,7.73
2017-10-14T01:52:51.764Z,9.70
2017-10-14T01:55:26.267Z,14.67
2017-10-14T01:58:01.138Z,6.00
2017-10-14T02:03:32.791Z,9.17
2017-10-14T02:06:07.811Z,4.23
2017-10-14T02:08:43.597Z,5.33
2017-10-14T02:11:18.822Z,7.57
2017-10-14T02:13:53.773Z,8.27
2017-10-14T02:16:28.465Z,11.10
2017-10-14T02:19:05.010Z,7.37
2017-10-14T02:21:40.296Z,7.23
2017-10-14T02:24:15.286Z,6.83
2017-10-14T02:26:50.320Z,5.67
2017-10-14T02:29:27.775Z,5.73
2017-10-14T02:32:02.485Z,4.00
2017-10-14T02:34:38.387Z,7.40
2017-10-14T02:37:13.385Z,9.53
2017-10-14T02:39:48.749Z,4.83
2017-10-14T02:42:23.922Z,3.67
2017-10-14T02:44:59.029Z,5.47
2017-10-14T02:47:33.894Z,5.00
2017-10-14T02:50:10.525Z,9.67
2017-10-14T02:52:45.978Z,7.77
2017-10-14T02:55:23.132Z,7.27
2017-10-14T02:57:57.598Z,10.87
2017-10-14T03:00:34.767Z,4.40
2017-10-14T03:03:10.027Z,12.53
2017-10-14T03:05:47.101Z,7.40
2017-10-14T03:08:22.298Z,6.60
2017-10-14T03:10:57.756Z,7.23
2017-10-14T03:13:32.544Z,6.33
2017-10-14T03:16:10.317Z,6.53
2017-10-14T03:18:44.970Z,6.17
2017-10-14T03:21:20.371Z,7.80
2017-10-14T03:23:55.617Z,8.10
2017-10-14T03:26:30.322Z,3.90
2017-10-14T03:29:06.067Z,12.60
2017-10-14T03:31:41.612Z,12.10
2017-10-14T03:34:16.896Z,5.90
2017-10-14T03:36:52.410Z,7.03
2017-10-14T03:39:26.855Z,4.63
2017-10-14T03:42:03.610Z,6.23
2017-10-14T03:44:38.074Z,6.67
2017-10-14T03:47:14.994Z,8.23
2017-10-14T03:49:50.924Z,5.10
2017-10-14T03:52:25.905Z,6.23
2017-10-14T03:55:00.990Z,16.67
2017-10-14T03:57:38.250Z,9.70
2017-10-14T04:00:18.724Z,10.83
2017-10-14T04:02:48.305Z,6.40
2017-10-14T04:05:22.980Z,6.67
2017-10-14T04:07:58.239Z,8.03
2017-10-14T04:10:32.897Z,3.70
2017-10-14T04:13:08.139Z,4.10
2017-10-14T04:15:43.543Z,6.87
2017-10-14T04:18:12.873Z,6.23
2017-10-14T04:20:39.697Z,6.07
2017-10-14T04:23:14.705Z,5.30
2017-10-14T04:25:49.772Z,5.63
2017-10-14T04:28:25.318Z,6.93
2017-10-14T04:30:58.139Z,6.63
2017-10-14T04:33:33.506Z,3.40
2017-10-14T04:36:08.265Z,3.90
2017-10-14T04:38:43.392Z,4.87
2017-10-14T04:41:18.046Z,8.87
2017-10-14T04:43:52.988Z,7.50
2017-10-14T04:46:28.283Z,8.73
2017-10-14T04:49:05.292Z,4.43
2017-10-14T04:51:40.439Z,7.53
2017-10-14T04:54:16.272Z,6.33
2017-10-14T04:56:51.037Z,3.93
2017-10-14T04:59:29.065Z,3.13
2017-10-14T05:02:03.868Z,10.03
2017-10-14T05:04:39.806Z,6.90
2017-10-14T05:07:15.081Z,14.43
2017-10-14T05:09:50.587Z,4.70
2017-10-14T05:12:25.818Z,5.80
2017-10-14T05:15:01.306Z,9.90
2017-10-14T05:17:35.949Z,5.90
2017-10-14T05:20:14.281Z,5.27
2017-10-14T05:22:47.105Z,6.73
2017-10-14T05:25:13.861Z,4.07
2017-10-14T05:27:48.639Z,15.73
2017-10-14T05:30:23.492Z,4.23
2017-10-14T05:32:58.569Z,6.83
2017-10-14T05:35:33.201Z,5.57
2017-10-14T05:38:08.680Z,6.40
2017-10-14T05:40:43.845Z,6.77
2017-10-14T05:43:18.983Z,9.03
2017-10-14T05:45:45.699Z,5.80
2017-10-14T05:48:12.567Z,6.80
2017-10-14T05:50:48.473Z,13.77
2017-10-14T05:53:23.472Z,23.00
2017-10-14T05:56:01.152Z,32.10
2017-10-14T05:58:36.193Z,20.30
2017-10-14T06:01:03.946Z,21.87
2017-10-14T06:03:38.729Z,24.10
2017-10-14T06:06:14.606Z,9.90
2017-10-14T06:08:49.929Z,9.17
2017-10-14T06:11:25.696Z,7.47
2017-10-14T06:14:00.496Z,9.67
2017-10-14T06:16:35.452Z,6.50
2017-10-14T06:19:10.508Z,7.10
2017-10-14T06:21:47.897Z,11.37
2017-10-14T06:24:22.586Z,10.00
2017-10-14T06:26:58.355Z,10.73
2017-10-14T06:29:33.357Z,6.70
2017-10-14T06:32:09.664Z,8.70
2017-10-14T06:34:44.542Z,12.30
2017-10-14T06:37:21.246Z,9.13
2017-10-14T06:39:56.254Z,5.87
2017-10-14T06:42:31.889Z,5.27
2017-10-14T06:45:06.716Z,7.63
2017-10-14T06:47:41.344Z,9.53
2017-10-14T06:50:16.319Z,6.87
2017-10-14T06:52:52.733Z,12.40
2017-10-14T06:55:27.553Z,6.23
2017-10-14T06:58:03.513Z,4.60
2017-10-14T07:00:38.339Z,6.03
2017-10-14T07:03:13.466Z,8.07
2017-10-14T07:05:49.233Z,7.77
2017-10-14T07:08:25.399Z,3.70
2017-10-14T07:11:00.185Z,5.40
2017-10-14T07:13:34.829Z,9.10
2017-10-14T07:16:09.377Z,5.47
2017-10-14T07:18:43.952Z,5.07
2017-10-14T07:21:18.538Z,5.03
2017-10-14T07:23:54.289Z,3.90
2017-10-14T07:26:29.998Z,12.10
2017-10-14T07:29:07.134Z,3.43
2017-10-14T07:31:42.221Z,5.73
2017-10-14T07:34:17.897Z,3.03
2017-10-14T07:36:52.632Z,5.63
2017-10-14T07:39:27.387Z,6.70
2017-10-14T07:42:01.992Z,10.73
2017-10-14T07:44:36.907Z,9.33
2017-10-14T07:47:11.952Z,22.57
2017-10-14T07:49:47.679Z,3.50
2017-10-14T07:52:22.634Z,10.40
2017-10-14T07:54:58.069Z,8.97
2017-10-14T07:57:32.786Z,4.73
2017-10-14T08:00:08.075Z,4.40
2017-10-14T08:02:43.217Z,9.07
2017-10-14T08:05:18.082Z,11.90
2017-10-14T08:07:52.845Z,7.57
2017-10-14T08:10:29.700Z,5.53
2017-10-14T08:13:04.341Z,2.43
2017-10-14T08:15:43.468Z,4.43
2017-10-14T08:18:18.908Z,3.93
2017-10-14T08:20:53.798Z,6.33
2017-10-14T08:23:28.297Z,6.83
2017-10-14T08:26:04.451Z,5.30
2017-10-14T08:28:39.466Z,6.23
2017-10-14T08:31:16.372Z,6.60
2017-10-14T08:33:51.455Z,6.70
2017-10-14T08:36:26.549Z,6.70
2017-10-14T08:39:01.843Z,9.73
2017-10-14T08:41:39.158Z,7.93
2017-10-14T08:44:14.386Z,4.90
2017-10-14T08:46:49.066Z,7.83
2017-10-14T08:49:23.958Z,7.67
2017-10-14T08:51:58.657Z,6.73
2017-10-14T08:54:33.805Z,6.17
2017-10-14T08:57:12.851Z,6.47
2017-10-14T08:59:47.555Z,6.67
2017-10-14T09:02:23.305Z,5.63
2017-10-14T09:04:58.105Z,7.43
2017-10-14T09:07:33.324Z,5.97
2017-10-14T09:10:08.440Z,4.87
2017-10-14T09:12:47.075Z,6.00
2017-10-14T09:15:21.995Z,7.47
2017-10-14T09:17:58.564Z,6.13
2017-10-14T09:20:33.935Z,4.43
2017-10-14T09:23:12.266Z,6.07
2017-10-14T09:25:46.901Z,3.70
2017-10-14T09:28:24.720Z,4.50
2017-10-14T09:31:00.064Z,10.37
2017-10-14T09:33:36.630Z,6.47
2017-10-14T09:36:11.084Z,3.57
2017-10-14T09:38:47.938Z,6.53
2017-10-14T09:41:22.967Z,5.10
2017-10-14T09:43:57.902Z,6.70
2017-10-14T09:46:32.878Z,3.50
2017-10-14T09:49:07.828Z,6.17
2017-10-14T09:51:42.561Z,5.60
2017-10-14T09:54:21.418Z,6.00
2017-10-14T09:56:56.693Z,9.90
2017-10-14T09:59:31.427Z,7.87
2017-10-14T10:01:58.204Z,5.47
2017-10-14T10:04:33.570Z,7.80
2017-10-14T10:07:08.781Z,9.13
2017-10-14T10:09:43.886Z,5.97
2017-10-14T10:12:19.091Z,8.70
2017-10-14T10:14:54.461Z,5.30
2017-10-14T10:17:29.414Z,5.37
2017-10-14T10:20:04.165Z,5.53
2017-10-14T10:22:39.255Z,4.37
2017-10-14T10:25:14.042Z,9.87
2017-10-14T10:27:49.570Z,4.77
2017-10-14T10:30:24.491Z,4.67
2017-10-14T10:32:59.691Z,11.13
2017-10-14T10:35:36.877Z,5.80
2017-10-14T10:38:12.311Z,4.23
2017-10-14T10:40:54.499Z,12.33
2017-10-14T10:43:29.384Z,5.67
2017-10-14T10:46:05.079Z,7.40
2017-10-14T10:48:39.725Z,4.30
2017-10-14T10:51:14.246Z,4.70
2017-10-14T10:53:48.914Z,4.83
2017-10-14T10:56:25.987Z,3.13
2017-10-14T10:59:01.783Z,5.27
2017-10-14T11:01:37.030Z,4.90
2017-10-14T11:04:11.804Z,3.27
2017-10-14T11:06:46.677Z,5.80
2017-10-14T11:09:21.390Z,3.60
2017-10-14T11:11:56.637Z,7.57
2017-10-14T11:14:31.304Z,5.17
2017-10-14T11:17:07.345Z,4.53
2017-10-14T11:19:43.080Z,3.80
2017-10-14T11:22:18.863Z,5.17
2017-10-14T11:24:53.337Z,7.00
2017-10-14T11:27:30.659Z,14.30
2017-10-14T11:30:05.684Z,7.10
2017-10-14T11:32:42.067Z,6.73
2017-10-14T11:35:16.957Z,4.67
2017-10-14T11:37:53.472Z,3.53
2017-10-14T11:40:28.472Z,6.37
2017-10-14T11:43:04.895Z,4.60
2017-10-14T11:45:39.840Z,9.23
2017-10-14T11:48:14.756Z,10.03
2017-10-14T11:50:49.328Z,7.53
2017-10-14T11:53:25.130Z,4.00
2017-10-14T11:55:59.686Z,5.73
2017-10-14T11:58:34.656Z,3.73
2017-10-14T12:01:01.386Z,4.03
2017-10-14T12:03:36.031Z,5.90
2017-10-14T12:06:10.701Z,4.80
2017-10-14T12:08:46.204Z,2.87
2017-10-14T12:11:20.759Z,5.13
2017-10-14T12:16:36.385Z,4.57
2017-10-14T12:19:11.358Z,3.03
2017-10-14T12:21:46.884Z,7.40
2017-10-14T12:24:21.444Z,11.30
2017-10-14T12:26:56.211Z,7.23
2017-10-14T12:29:31.933Z,8.93
2017-10-14T12:32:06.988Z,11.67
2017-10-14T12:34:41.750Z,5.17
2017-10-14T12:37:16.889Z,9.33
2017-10-14T12:39:51.921Z,5.07
2017-10-14T12:42:26.510Z,5.30
2017-10-14T12:45:01.928Z,6.63
2017-10-14T12:47:36.747Z,4.03
2017-10-14T12:50:13.003Z,6.53
2017-10-14T12:52:47.987Z,6.60
2017-10-14T12:55:22.659Z,5.07
2017-10-14T12:57:57.236Z,11.30
2017-10-14T13:00:32.963Z,3.27
2017-10-14T13:03:07.853Z,5.53
2017-10-14T13:05:43.558Z,4.00
2017-10-14T13:08:18.357Z,3.83
2017-10-14T13:10:54.836Z,4.63
2017-10-14T13:13:30.017Z,7.27
2017-10-14T13:16:05.609Z,5.90
2017-10-14T13:18:40.982Z,4.67
2017-10-14T13:21:17.335Z,7.67
2017-10-14T13:23:52.291Z,4.80
2017-10-14T13:26:28.227Z,3.60
2017-10-14T13:29:03.128Z,5.80
2017-10-14T13:31:39.099Z,5.43
2017-10-14T13:34:13.922Z,5.63
2017-10-14T13:36:49.231Z,6.10
2017-10-14T13:39:23.883Z,3.13
2017-10-14T13:41:59.100Z,3.03
2017-10-14T13:44:35.874Z,11.13
2017-10-14T13:47:11.448Z,5.57
2017-10-14T13:49:46.029Z,5.23
2017-10-14T13:52:21.070Z,14.97
2017-10-14T13:54:55.882Z,19.70
2017-10-14T13:57:31.408Z,10.27
2017-10-14T14:00:06.160Z,6.57
2017-10-14T14:02:35.424Z,3.37
2017-10-14T14:05:10.835Z,2.90
2017-10-14T14:07:45.494Z,7.30
2017-10-14T14:10:20.097Z,3.90
2017-10-14T14:12:55.944Z,3.07
2017-10-14T14:15:31.161Z,7.80
2017-10-14T14:18:06.856Z,10.10
2017-10-14T14:20:41.641Z,5.80
2017-10-14T14:23:22.372Z,4.27
2017-10-14T14:25:57.372Z,6.97
2017-10-14T14:28:34.576Z,4.43
2017-10-14T14:31:09.181Z,10.57
2017-10-14T14:33:44.740Z,5.93
2017-10-14T14:36:19.621Z,4.50
2017-10-14T14:38:55.400Z,4.83
2017-10-14T14:41:30.045Z,4.30
2017-10-14T14:44:05.597Z,5.70
2017-10-14T14:46:41.751Z,6.67
2017-10-14T14:49:16.507Z,6.87
2017-10-14T14:51:51.884Z,6.57
2017-10-14T14:54:26.831Z,20.13
2017-10-14T14:57:01.621Z,8.10
2017-10-14T14:59:36.380Z,7.30
2017-10-14T15:02:11.245Z,9.80
2017-10-14T15:04:46.143Z,9.07
2017-10-14T15:07:20.903Z,10.77
2017-10-14T15:09:55.783Z,9.40
2017-10-14T15:12:30.371Z,8.70
2017-10-14T15:15:04.980Z,10.03
2017-10-14T15:17:40.219Z,5.10
2017-10-14T15:20:15.783Z,15.90
2017-10-14T15:22:50.384Z,6.80
2017-10-14T15:25:25.092Z,9.53
2017-10-14T15:27:59.895Z,9.07
2017-10-14T15:30:35.716Z,6.80
2017-10-14T15:33:10.539Z,8.70
2017-10-14T15:35:49.446Z,8.63
2017-10-14T15:38:24.708Z,8.63
2017-10-14T15:40:59.675Z,13.63
2017-10-14T15:43:34.276Z,14.47
2017-10-14T15:46:14.559Z,9.77
2017-10-14T15:48:49.757Z,4.13
2017-10-14T15:51:26.266Z,12.20
2017-10-14T15:54:01.267Z,7.20
2017-10-14T15:56:38.988Z,9.00
2017-10-14T15:59:14.269Z,20.17
2017-10-14T16:01:41.080Z,14.70
2017-10-14T16:04:16.083Z,13.33
2017-10-14T16:06:51.359Z,6.97
2017-10-14T16:09:27.400Z,7.77
2017-10-14T16:12:02.115Z,10.70
2017-10-14T16:14:37.381Z,8.23
2017-10-14T16:17:15.504Z,8.37
2017-10-14T16:19:50.927Z,9.67
2017-10-14T16:22:26.580Z,10.07
2017-10-14T16:25:01.145Z,10.43
2017-10-14T16:27:35.982Z,18.63
2017-10-14T16:30:11.168Z,21.47
2017-10-14T16:32:46.808Z,15.20
2017-10-14T16:35:22.215Z,18.13
2017-10-14T16:37:56.899Z,21.53
2017-10-14T16:40:31.553Z,23.60
2017-10-14T16:43:08.877Z,17.57
2017-10-14T16:45:43.877Z,15.63
2017-10-14T16:48:22.033Z,19.63
2017-10-14T16:50:57.376Z,21.73
2017-10-14T16:53:32.818Z,15.43
2017-10-14T16:56:07.847Z,9.93
2017-10-14T16:58:45.961Z,21.33
2017-10-14T17:01:20.462Z,14.33
2017-10-14T17:03:56.355Z,11.90
2017-10-14T17:06:31.272Z,25.03
2017-10-14T17:09:06.239Z,18.03
2017-10-14T17:11:40.960Z,29.43
2017-10-14T17:14:16.810Z,33.87
2017-10-14T17:16:51.460Z,22.23
2017-10-14T17:19:27.303Z,15.10
2017-10-14T17:22:01.932Z,15.50
2017-10-14T17:24:36.560Z,14.60
2017-10-14T17:27:11.093Z,20.20
2017-10-14T17:29:45.924Z,17.60
2017-10-14T17:32:20.460Z,14.37
2017-10-14T17:34:55.045Z,12.20
2017-10-14T17:37:29.965Z,8.47
2017-10-14T17:40:04.776Z,15.60
2017-10-14T17:42:39.756Z,18.17
2017-10-14T17:45:15.439Z,10.17
2017-10-14T17:47:50.168Z,15.77
2017-10-14T17:50:24.954Z,23.60
2017-10-14T17:52:59.748Z,14.13
2017-10-14T17:55:34.265Z,13.90
2017-10-14T17:58:09.181Z,33.10
2017-10-14T18:00:53.044Z,30.90
2017-10-14T18:03:27.594Z,28.30
2017-10-14T18:06:02.405Z,21.20
2017-10-14T18:08:36.819Z,20.47
2017-10-14T18:11:13.303Z,11.20
2017-10-14T18:13:48.326Z,10.70
2017-10-14T18:16:24.741Z,7.87
2017-10-14T18:18:59.928Z,8.60
2017-10-14T18:21:41.127Z,9.23
2017-10-14T18:24:16.361Z,6.23
2017-10-14T18:26:52.923Z,13.37
2017-10-14T18:29:28.050Z,9.63
2017-10-14T18:32:03.736Z,12.67
2017-10-14T18:34:38.392Z,13.93
2017-10-14T18:39:53.771Z,9.17
2017-10-14T18:45:34.477Z,14.30
2017-10-14T18:48:09.151Z,18.17
2017-10-14T18:50:46.481Z,13.00
2017-10-14T18:53:22.808Z,14.23
2017-10-14T18:55:57.421Z,16.87
2017-10-14T18:58:32.233Z,21.90
2017-10-14T19:01:12.503Z,16.00
2017-10-14T19:03:49.112Z,13.33
2017-10-14T19:06:25.750Z,10.93
2017-10-14T19:09:01.033Z,16.83
2017-10-14T19:11:38.723Z,11.73
2017-10-14T19:14:16.399Z,18.53
2017-10-14T19:16:52.145Z,11.07
2017-10-14T19:19:29.329Z,14.87
2017-10-14T19:22:04.009Z,13.50
2017-10-14T19:24:39.548Z,19.23
2017-10-14T19:27:15.577Z,26.60
2017-10-14T19:29:50.427Z,20.33
2017-10-14T19:32:25.589Z,16.57
2017-10-14T19:35:02.813Z,9.83
2017-10-14T19:37:37.327Z,12.03
2017-10-14T19:40:16.404Z,11.10
2017-10-14T19:42:51.531Z,11.37
2017-10-14T19:45:27.080Z,9.03
2017-10-14T19:48:03.638Z,14.67
2017-10-14T19:50:42.773Z,8.20
2017-10-14T19:53:17.419Z,5.83
2017-10-14T19:55:52.051Z,9.70
2017-10-14T19:58:27.348Z,9.77
2017-10-14T20:00:54.122Z,9.27
2017-10-14T20:03:29.172Z,8.20
2017-10-14T20:06:09.067Z,11.83
2017-10-14T20:08:44.242Z,9.83
2017-10-14T20:11:19.730Z,7.27
2017-10-14T20:13:54.295Z,6.73
2017-10-14T20:16:31.813Z,9.93
2017-10-14T20:19:06.429Z,8.50
2017-10-14T20:21:41.171Z,10.93
2017-10-14T20:24:16.466Z,13.47
2017-10-14T20:26:51.016Z,14.93
2017-10-14T20:29:25.727Z,19.40
2017-10-14T20:32:00.740Z,20.27
2017-10-14T20:34:35.828Z,18.63
2017-10-14T20:37:11.306Z,16.57
2017-10-14T20:39:45.964Z,20.83
2017-10-14T20:42:21.601Z,17.77
2017-10-14T20:44:56.875Z,15.67
2017-10-14T20:47:32.389Z,18.93
2017-10-14T20:50:06.952Z,16.53
2017-10-14T20:52:41.727Z,13.13
2017-10-14T20:55:16.913Z,15.73
2017-10-14T20:57:51.589Z,13.00
2017-10-14T21:00:27.027Z,19.93
2017-10-14T21:03:05.095Z,16.60
2017-10-14T21:05:39.743Z,9.87
2017-10-14T21:08:16.075Z,11.87
2017-10-14T21:10:51.094Z,13.63
2017-10-14T21:13:26.443Z,15.43
2017-10-14T21:16:01.940Z,21.50
2017-10-14T21:18:37.320Z,19.90
2017-10-14T21:21:11.760Z,19.67
2017-10-14T21:23:46.338Z,21.40
2017-10-14T21:26:21.982Z,22.73
2017-10-14T21:28:58.390Z,26.80
2017-10-14T21:31:33.402Z,18.00
2017-10-14T21:34:08.092Z,17.33
2017-10-14T21:36:43.583Z,10.83
2017-10-14T21:39:20.068Z,13.93
2017-10-14T21:41:55.627Z,15.57
2017-10-14T21:44:32.080Z,12.53
2017-10-14T21:47:06.728Z,9.10
2017-10-14T21:49:48.361Z,11.20
2017-10-14T21:52:23.071Z,7.83
2017-10-14T21:55:00.132Z,9.30
2017-10-14T21:57:35.097Z,10.93
2017-10-14T22:00:10.591Z,8.00
2017-10-14T22:02:37.292Z,9.23
2017-10-14T22:05:12.292Z,8.20
2017-10-14T22:07:46.808Z,7.40
2017-10-14T22:10:22.397Z,8.63
2017-10-14T22:12:56.897Z,6.37
2017-10-14T22:15:32.331Z,6.00
2017-10-14T22:18:06.827Z,9.10
2017-10-14T22:20:42.255Z,9.30
2017-10-14T22:23:17.576Z,9.40
2017-10-14T22:25:53.922Z,11.33
2017-10-14T22:28:29.055Z,8.33
2017-10-14T22:31:03.690Z,9.17
2017-10-14T22:33:39.115Z,9.70
2017-10-14T22:36:14.095Z,7.60
2017-10-14T22:38:48.599Z,9.70
2017-10-14T22:41:26.033Z,7.07
2017-10-14T22:44:00.538Z,15.93
2017-10-14T22:46:35.134Z,8.20
2017-10-14T22:49:09.746Z,9.03
2017-10-14T22:51:45.451Z,6.93
2017-10-14T22:54:20.128Z,12.00
2017-10-14T22:56:57.340Z,8.10
2017-10-14T22:59:32.454Z,9.83
2017-10-14T23:02:08.692Z,10.87
2017-10-14T23:04:44.179Z,10.27
2017-10-14T23:07:18.870Z,15.07
2017-10-14T23:09:53.328Z,11.07
2017-10-14T23:12:27.937Z,9.83
2017-10-14T23:15:02.494Z,13.60
2017-10-14T23:17:38.178Z,10.30
2017-10-14T23:20:13.533Z,15.57
2017-10-14T23:22:48.406Z,11.90
2017-10-14T23:25:23.776Z,9.20
2017-10-14T23:27:58.683Z,10.33
2017-10-14T23:30:33.783Z,11.37
2017-10-14T23:33:08.691Z,14.80
2017-10-14T23:35:43.761Z,11.90
2017-10-14T23:38:19.941Z,8.73
2017-10-14T23:40:54.746Z,9.60
2017-10-14T23:43:33.497Z,13.20
2017-10-14T23:46:08.042Z,12.73
2017-10-14T23:48:43.983Z,8.10
2017-10-14T23:51:18.695Z,8.50
2017-10-14T23:53:54.381Z,14.93
2017-10-14T23:56:29.020Z,11.47
2017-10-14T23:59:03.890Z,7.93
